Time;durP1;ratioP1;P1;durP2;ratioP2;P2;SDS_P1;SDS_P2;PMS_P1;PMS_P2;Temp;Humidity;BMP_temperature;BMP_pressure;BME280_temperature;BME280_humidity;BME280_pressure;Samples;Min_cycle;Max_cycle;Signal;HPM_P1;HPM_P2
2023/01/08 00:00:39;;;;;;;;;;;10.60;99.90;;;;;;4247578;27;20390;-86
2023/01/08 00:02:41;;;;;;;;;;;9.90;99.90;;;;;;4247521;27;20052;-86
2023/01/08 00:04:42;;;;;;;;;;;10.30;99.90;;;;;;4230900;28;19927;-86
2023/01/08 00:06:44;;;;;;;;;;;9.80;99.90;;;;;;4247090;27;19923;-86
2023/01/08 00:08:46;;;;;;;;;;;10.10;99.90;;;;;;4266364;27;20363;-87
2023/01/08 00:10:52;;;;;;;;;;;9.90;99.90;;;;;;4247683;27;20463;-86
2023/01/08 00:12:54;;;;;;;;;;;10.40;99.90;;;;;;4265848;27;20363;-86
2023/01/08 00:14:55;;;;;;;;;;;9.70;99.90;;;;;;4247501;27;20299;-86
2023/01/08 00:16:56;;;;;;;;;;;11.10;99.90;;;;;;4246728;28;19924;-86
2023/01/08 00:18:57;;;;;;;;;;;10.40;99.90;;;;;;4246493;28;20643;-86
2023/01/08 00:20:59;;;;;;;;;;;10.20;99.90;;;;;;4265370;27;19926;-86
2023/01/08 00:22:59;;;;;;;;;;;10.60;99.90;;;;;;4246629;28;19942;-86
2023/01/08 00:25:00;;;;;;;;;;;10.20;99.90;;;;;;4265032;27;19923;-87
2023/01/08 00:27:00;;;;;;;;;;;11.00;99.90;;;;;;4246175;28;19930;-86
2023/01/08 00:29:01;;;;;;;;;;;10.00;99.90;;;;;;4229526;28;20010;-86
2023/01/08 00:31:08;;;;;;;;;;;10.40;99.90;;;;;;4246444;28;19951;-86
2023/01/08 00:33:09;;;;;;;;;;;10.30;99.90;;;;;;4229730;28;20014;-86
2023/01/08 00:35:09;;;;;;;;;;;10.10;99.90;;;;;;4246605;28;20364;-86
2023/01/08 00:37:10;;;;;;;;;;;10.40;99.90;;;;;;4246418;28;20002;-86
2023/01/08 00:39:11;;;;;;;;;;;10.50;99.90;;;;;;4246440;28;20001;-85
2023/01/08 00:41:12;;;;;;;;;;;12.40;99.90;;;;;;4264754;27;19962;-86
2023/01/08 00:43:14;;;;;;;;;;;9.90;99.90;;;;;;4246878;28;19971;-86
2023/01/08 00:45:14;;;;;;;;;;;10.40;99.90;;;;;;4230182;28;20010;-86
2023/01/08 00:47:15;;;;;;;;;;;10.40;99.90;;;;;;4246739;28;19927;-86
2023/01/08 00:49:16;;;;;;;;;;;10.00;99.90;;;;;;4265166;27;19919;-86
2023/01/08 00:51:16;;;;;;;;;;;10.00;99.90;;;;;;4230306;28;20476;-86
2023/01/08 00:53:18;;;;;;;;;;;10.30;99.90;;;;;;4246255;28;19920;-86
2023/01/08 00:55:19;;;;;;;;;;;10.40;99.90;;;;;;4246746;28;19919;-86
2023/01/08 00:57:21;;;;;;;;;;;10.00;99.90;;;;;;4265697;27;20417;-86
2023/01/08 00:59:21;;;;;;;;;;;10.50;99.90;;;;;;4265540;27;20427;-85
2023/01/08 01:01:22;;;;;;;;;;;10.50;99.90;;;;;;4264921;27;20021;-85
2023/01/08 01:03:23;;;;;;;;;;;8.90;99.90;;;;;;4247195;27;19966;-84
2023/01/08 01:05:24;;;;;;;;;;;10.30;99.90;;;;;;4232522;28;19920;-85
2023/01/08 01:07:24;;;;;;;;;;;10.50;99.90;;;;;;4257187;27;19919;-86
2023/01/08 01:09:25;;;;;;;;;;;10.30;99.90;;;;;;4251270;27;20006;-86
2023/01/08 01:11:27;;;;;;;;;;;10.80;99.90;;;;;;4251162;27;19991;-86
2023/01/08 01:13:27;;;;;;;;;;;9.90;99.90;;;;;;4235028;28;19916;-85
2023/01/08 01:15:29;;;;;;;;;;;10.30;99.90;;;;;;4270374;27;19973;-86
2023/01/08 01:17:32;;;;;;;;;;;10.30;99.90;;;;;;4270333;27;19927;-85
2023/01/08 01:19:32;;;;;;;;;;;10.00;99.90;;;;;;4270023;27;19919;-85
2023/01/08 01:21:33;;;;;;;;;;;10.10;99.90;;;;;;4251135;27;19927;-85
2023/01/08 01:23:34;;;;;;;;;;;10.40;99.90;;;;;;4269586;27;20379;-85
2023/01/08 01:25:37;;;;;;;;;;;10.80;99.90;;;;;;4233995;28;19928;-86
2023/01/08 01:27:37;;;;;;;;;;;10.20;99.90;;;;;;4250686;27;19930;-86
2023/01/08 01:29:38;;;;;;;;;;;9.90;99.90;;;;;;4269619;27;20414;-86
2023/01/08 01:31:40;;;;;;;;;;;9.60;99.90;;;;;;4250368;27;19919;-86
2023/01/08 01:33:40;;;;;;;;;;;10.20;99.90;;;;;;4249920;27;19923;-86
2023/01/08 01:35:41;;;;;;;;;;;10.30;99.90;;;;;;4234033;28;20450;-86
2023/01/08 01:37:43;;;;;;;;;;;9.70;99.90;;;;;;4252569;27;20402;-86
2023/01/08 01:39:45;;;;;;;;;;;9.60;99.90;;;;;;4230980;28;20285;-86
2023/01/08 01:41:47;;;;;;;;;;;9.50;99.90;;;;;;4252105;27;20383;-86
2023/01/08 01:43:47;;;;;;;;;;;9.90;99.90;;;;;;4252086;27;19931;-86
2023/01/08 01:45:48;;;;;;;;;;;10.30;99.90;;;;;;4233321;28;20341;-86
2023/01/08 01:47:56;;;;;;;;;;;10.50;99.90;;;;;;4233853;28;19971;-87
2023/01/08 01:50:01;;;;;;;;;;;10.20;99.90;;;;;;4252286;27;20383;-84
2023/01/08 01:52:04;;;;;;;;;;;10.40;99.90;;;;;;4231210;28;19973;-85
2023/01/08 01:54:06;;;;;;;;;;;10.50;99.90;;;;;;4268963;27;19969;-85
2023/01/08 01:56:08;;;;;;;;;;;10.30;99.90;;;;;;4268870;27;19926;-85
2023/01/08 01:58:18;;;;;;;;;;;10.30;99.90;;;;;;4268450;27;19927;-85
2023/01/08 02:00:19;;;;;;;;;;;10.30;99.90;;;;;;4250304;27;19926;-85
2023/01/08 02:02:20;;;;;;;;;;;10.90;99.90;;;;;;4250020;27;19923;-86
2023/01/08 02:04:21;;;;;;;;;;;9.70;99.90;;;;;;4249569;27;20236;-85
2023/01/08 02:06:28;;;;;;;;;;;9.90;99.90;;;;;;4250156;27;19993;-85
2023/01/08 02:08:45;;;;;;;;;;;9.10;99.90;;;;;;4249864;27;19926;-86
2023/01/08 02:10:55;;;;;;;;;;;10.20;99.90;;;;;;4233683;28;19924;-85
2023/01/08 02:13:00;;;;;;;;;;;9.90;99.90;;;;;;4268591;27;19934;-85
2023/01/08 02:15:10;;;;;;;;;;;10.20;99.90;;;;;;4268343;27;20039;-86
2023/01/08 02:17:13;;;;;;;;;;;9.50;99.90;;;;;;4233195;28;19969;-85
2023/01/08 02:19:14;;;;;;;;;;;10.60;99.90;;;;;;4269189;27;20382;-86
2023/01/08 02:21:28;;;;;;;;;;;9.60;99.90;;;;;;4252377;27;19927;-85
2023/01/08 02:23:34;;;;;;;;;;;9.90;99.90;;;;;;4270776;27;20268;-85
2023/01/08 02:25:41;;;;;;;;;;;10.10;99.90;;;;;;4254619;27;19928;-85
2023/01/08 02:27:44;;;;;;;;;;;9.80;99.90;;;;;;4250126;27;19927;-84
2023/01/08 02:29:45;;;;;;;;;;;10.10;99.90;;;;;;4266745;27;20347;-85
2023/01/08 02:31:46;;;;;;;;;;;9.90;99.90;;;;;;4267727;27;20286;-85
2023/01/08 02:33:47;;;;;;;;;;;10.40;99.90;;;;;;4248770;27;19919;-85
2023/01/08 02:35:51;;;;;;;;;;;9.60;99.90;;;;;;4247879;27;19926;-85
2023/01/08 02:37:52;;;;;;;;;;;9.70;99.90;;;;;;4248935;27;19924;-85
2023/01/08 02:39:59;;;;;;;;;;;11.10;99.90;;;;;;4248391;27;20272;-85
2023/01/08 02:42:20;;;;;;;;;;;10.10;99.90;;;;;;4248207;27;19970;-86
2023/01/08 02:44:33;;;;;;;;;;;9.50;99.90;;;;;;4248449;27;20006;-86
2023/01/08 02:46:34;;;;;;;;;;;9.90;99.90;;;;;;4266751;27;20314;-85
2023/01/08 02:48:47;;;;;;;;;;;10.00;99.90;;;;;;4266911;27;20017;-86
2023/01/08 02:50:50;;;;;;;;;;;9.60;99.90;;;;;;4231559;28;19919;-85
2023/01/08 02:53:11;;;;;;;;;;;9.70;99.90;;;;;;4243699;27;19978;-85
2023/01/08 02:55:11;;;;;;;;;;;9.70;99.90;;;;;;4250050;27;20038;-85
2023/01/08 02:57:14;;;;;;;;;;;10.40;99.90;;;;;;4231274;28;19919;-85
2023/01/08 02:59:15;;;;;;;;;;;9.50;99.90;;;;;;4231168;28;19920;-85
2023/01/08 03:01:16;;;;;;;;;;;9.90;99.90;;;;;;4250001;27;19919;-85
2023/01/08 03:03:19;;;;;;;;;;;9.70;99.90;;;;;;4231268;28;19924;-85
2023/01/08 03:05:24;;;;;;;;;;;9.70;99.90;;;;;;4249461;27;20293;-85
2023/01/08 03:07:24;;;;;;;;;;;9.60;99.90;;;;;;4236031;27;20018;-85
2023/01/08 03:09:25;;;;;;;;;;;9.00;99.90;;;;;;4267505;27;19942;-85
2023/01/08 03:11:28;;;;;;;;;;;9.30;99.90;;;;;;4248077;27;19919;-85
2023/01/08 03:13:49;;;;;;;;;;;9.20;99.90;;;;;;4248680;27;19919;-85
2023/01/08 03:15:52;;;;;;;;;;;8.90;99.90;;;;;;4267083;27;19972;-85
2023/01/08 03:17:56;;;;;;;;;;;9.10;99.90;;;;;;4267641;27;19919;-86
2023/01/08 03:20:00;;;;;;;;;;;9.50;99.90;;;;;;4248836;27;19962;-85
2023/01/08 03:22:02;;;;;;;;;;;9.50;99.90;;;;;;4249102;27;19981;-85
2023/01/08 03:24:03;;;;;;;;;;;9.50;99.90;;;;;;4256944;27;19994;-84
2023/01/08 03:26:05;;;;;;;;;;;9.40;99.90;;;;;;4279927;27;19923;-86
2023/01/08 03:28:09;;;;;;;;;;;8.90;99.90;;;;;;4245999;28;19994;-85
2023/01/08 03:30:10;;;;;;;;;;;9.70;99.90;;;;;;4247764;28;19923;-86
2023/01/08 03:32:14;;;;;;;;;;;9.10;99.90;;;;;;4283228;27;19977;-85
2023/01/08 03:34:15;;;;;;;;;;;9.10;99.90;;;;;;4248424;28;19997;-86
2023/01/08 03:36:19;;;;;;;;;;;9.60;99.90;;;;;;4248483;28;19927;-85
2023/01/08 03:38:22;;;;;;;;;;;9.30;99.90;;;;;;4280717;27;19952;-84
2023/01/08 03:40:33;;;;;;;;;;;9.40;99.90;;;;;;4260989;27;20341;-85
2023/01/08 03:42:34;;;;;;;;;;;9.40;99.90;;;;;;4281194;27;19926;-86
2023/01/08 03:44:34;;;;;;;;;;;9.50;99.90;;;;;;4264658;27;20407;-85
2023/01/08 03:46:38;;;;;;;;;;;9.00;99.90;;;;;;4264935;27;19903;-85
2023/01/08 03:48:42;;;;;;;;;;;9.50;99.90;;;;;;4270412;27;19923;-86
2023/01/08 03:50:43;;;;;;;;;;;9.10;99.90;;;;;;4267841;27;20000;-85
2023/01/08 03:52:44;;;;;;;;;;;9.90;99.90;;;;;;4266595;27;20029;-86
2023/01/08 03:54:44;;;;;;;;;;;8.70;99.90;;;;;;4266932;27;19919;-85
2023/01/08 03:56:46;;;;;;;;;;;7.60;99.90;;;;;;4247585;27;19919;-86
2023/01/08 03:58:48;;;;;;;;;;;9.90;99.90;;;;;;4265979;27;20014;-85
2023/01/08 04:00:49;;;;;;;;;;;8.90;99.90;;;;;;4265481;27;19926;-85
2023/01/08 04:02:51;;;;;;;;;;;9.40;99.90;;;;;;4247378;27;19927;-86
2023/01/08 04:04:51;;;;;;;;;;;9.00;99.90;;;;;;4230539;28;19924;-86
2023/01/08 04:06:52;;;;;;;;;;;8.50;99.90;;;;;;4247217;27;20418;-85
2023/01/08 04:08:53;;;;;;;;;;;9.10;99.90;;;;;;4247109;27;19923;-85
2023/01/08 04:10:54;;;;;;;;;;;9.30;99.90;;;;;;4265120;27;19925;-86
2023/01/08 04:12:55;;;;;;;;;;;9.20;99.90;;;;;;4246605;27;19919;-85
2023/01/08 04:14:55;;;;;;;;;;;8.90;99.90;;;;;;4247748;27;19954;-86
2023/01/08 04:16:56;;;;;;;;;;;9.00;99.90;;;;;;4248955;28;20052;-85
2023/01/08 04:18:58;;;;;;;;;;;9.00;99.90;;;;;;4246889;28;19926;-85
2023/01/08 04:20:58;;;;;;;;;;;9.30;99.90;;;;;;4230549;28;20437;-85
2023/01/08 04:23:00;;;;;;;;;;;8.60;99.90;;;;;;4247606;28;19919;-85
2023/01/08 04:25:01;;;;;;;;;;;9.20;99.90;;;;;;4249375;27;19920;-85
2023/01/08 04:27:01;;;;;;;;;;;9.30;99.90;;;;;;4249543;28;20379;-85
2023/01/08 04:29:03;;;;;;;;;;;8.90;99.90;;;;;;4248356;28;19926;-86
2023/01/08 04:31:05;;;;;;;;;;;9.10;99.90;;;;;;4248039;27;20377;-86
2023/01/08 04:33:08;;;;;;;;;;;8.70;99.90;;;;;;4248860;27;20287;-86
2023/01/08 04:35:08;;;;;;;;;;;9.10;99.90;;;;;;4230043;28;19970;-85
2023/01/08 04:37:10;;;;;;;;;;;9.00;99.90;;;;;;4247171;28;19923;-85
2023/01/08 04:39:11;;;;;;;;;;;8.70;99.90;;;;;;4249078;27;19919;-85
2023/01/08 04:41:12;;;;;;;;;;;6.70;99.90;;;;;;4233615;28;20022;-85
2023/01/08 04:43:13;;;;;;;;;;;8.60;99.90;;;;;;4252281;27;20013;-85
2023/01/08 04:45:14;;;;;;;;;;;8.90;99.90;;;;;;4249308;27;20280;-85
2023/01/08 04:47:16;;;;;;;;;;;8.60;99.90;;;;;;4250679;27;19920;-85
2023/01/08 04:49:18;;;;;;;;;;;9.10;99.90;;;;;;4252062;27;19919;-85
2023/01/08 04:51:20;;;;;;;;;;;8.50;99.90;;;;;;4250632;27;19919;-85
2023/01/08 04:53:21;;;;;;;;;;;9.00;99.90;;;;;;4251495;27;19926;-85
2023/01/08 04:55:22;;;;;;;;;;;9.10;99.90;;;;;;4233596;28;19920;-85
2023/01/08 04:57:22;;;;;;;;;;;9.00;99.90;;;;;;4251492;27;20374;-85
2023/01/08 04:59:24;;;;;;;;;;;9.70;99.90;;;;;;4233467;28;19926;-85
2023/01/08 05:01:26;;;;;;;;;;;8.60;99.90;;;;;;4251833;27;20030;-85
2023/01/08 05:03:28;;;;;;;;;;;8.90;99.90;;;;;;4252420;27;19919;-85
2023/01/08 05:05:28;;;;;;;;;;;9.10;99.90;;;;;;4251310;27;19923;-85
2023/01/08 05:07:30;;;;;;;;;;;8.90;99.90;;;;;;4252056;27;19950;-85
2023/01/08 05:09:32;;;;;;;;;;;9.00;99.90;;;;;;4252584;27;19919;-85
2023/01/08 05:11:34;;;;;;;;;;;8.90;99.90;;;;;;4253501;27;20354;-85
2023/01/08 05:13:35;;;;;;;;;;;9.20;99.90;;;;;;4250733;27;20001;-86
2023/01/08 05:15:36;;;;;;;;;;;8.60;99.90;;;;;;4268837;27;19926;-86
2023/01/08 05:17:38;;;;;;;;;;;8.70;99.90;;;;;;4268490;27;20462;-86
2023/01/08 05:19:39;;;;;;;;;;;7.90;99.90;;;;;;4232833;28;19981;-86
2023/01/08 05:21:39;;;;;;;;;;;9.20;99.90;;;;;;4266528;27;19923;-85
2023/01/08 05:23:43;;;;;;;;;;;8.70;99.90;;;;;;4220205;28;19920;-86
2023/01/08 05:25:43;;;;;;;;;;;9.10;99.90;;;;;;4216487;28;20384;-85
2023/01/08 05:27:44;;;;;;;;;;;9.00;99.90;;;;;;4244983;27;20404;-86
2023/01/08 05:29:46;;;;;;;;;;;8.80;99.90;;;;;;4268123;27;19966;-85
2023/01/08 05:31:46;;;;;;;;;;;9.30;99.90;;;;;;4268035;27;19923;-86
2023/01/08 05:33:47;;;;;;;;;;;8.70;99.90;;;;;;4232499;28;19967;-86
2023/01/08 05:35:48;;;;;;;;;;;9.30;99.90;;;;;;4249138;27;19923;-86
2023/01/08 05:37:49;;;;;;;;;;;9.30;99.90;;;;;;4268152;27;19926;-86
2023/01/08 05:39:51;;;;;;;;;;;8.70;99.90;;;;;;4255778;27;20387;-87
2023/01/08 05:41:51;;;;;;;;;;;8.80;99.90;;;;;;4250742;27;20394;-87
2023/01/08 05:43:52;;;;;;;;;;;9.70;99.90;;;;;;4232236;28;19920;-86
2023/01/08 05:45:52;;;;;;;;;;;9.30;99.90;;;;;;4250451;27;19919;-87
2023/01/08 05:47:54;;;;;;;;;;;9.10;99.90;;;;;;4250334;27;19926;-86
2023/01/08 05:49:55;;;;;;;;;;;9.20;99.90;;;;;;4250278;27;20383;-86
2023/01/08 05:51:56;;;;;;;;;;;9.00;99.90;;;;;;4263433;27;19961;-86
2023/01/08 05:53:57;;;;;;;;;;;8.80;99.90;;;;;;4232707;28;19926;-86
2023/01/08 05:55:59;;;;;;;;;;;6.90;99.90;;;;;;4267808;27;20381;-86
2023/01/08 05:58:00;;;;;;;;;;;9.00;99.90;;;;;;4267804;27;19983;-86
2023/01/08 06:00:04;;;;;;;;;;;9.10;99.90;;;;;;4267661;27;20045;-86
2023/01/08 06:02:06;;;;;;;;;;;9.20;99.90;;;;;;4249275;27;19919;-86
2023/01/08 06:04:07;;;;;;;;;;;9.30;99.90;;;;;;4232985;28;20010;-86
2023/01/08 06:06:09;;;;;;;;;;;9.10;99.90;;;;;;4249910;27;19964;-85
2023/01/08 06:08:10;;;;;;;;;;;8.60;99.90;;;;;;4268235;27;19927;-86
2023/01/08 06:10:10;;;;;;;;;;;8.40;99.90;;;;;;4272003;27;19919;-86
2023/01/08 06:12:11;;;;;;;;;;;9.30;99.90;;;;;;4249588;27;19920;-87
2023/01/08 06:14:13;;;;;;;;;;;9.00;99.90;;;;;;4268575;27;19926;-86
2023/01/08 06:16:14;;;;;;;;;;;9.20;99.90;;;;;;4221776;28;19928;-87
2023/01/08 06:18:15;;;;;;;;;;;9.00;99.90;;;;;;4250957;27;19919;-86
2023/01/08 06:20:16;;;;;;;;;;;8.80;99.90;;;;;;4251142;27;19919;-85
2023/01/08 06:22:16;;;;;;;;;;;9.00;99.90;;;;;;4232429;28;20094;-87
2023/01/08 06:24:17;;;;;;;;;;;8.90;99.90;;;;;;4232349;28;19926;-87
2023/01/08 06:26:18;;;;;;;;;;;9.20;99.90;;;;;;4231954;28;19926;-86
2023/01/08 06:28:18;;;;;;;;;;;9.00;99.90;;;;;;4250422;27;20006;-87
2023/01/08 06:30:19;;;;;;;;;;;8.70;99.90;;;;;;4251155;27;20002;-86
2023/01/08 06:32:20;;;;;;;;;;;9.00;99.90;;;;;;4267854;27;20313;-86
2023/01/08 06:34:21;;;;;;;;;;;9.50;99.90;;;;;;4248785;27;19919;-87
2023/01/08 06:36:22;;;;;;;;;;;9.20;99.90;;;;;;4267090;27;19967;-85
2023/01/08 06:38:22;;;;;;;;;;;8.90;99.90;;;;;;4231656;28;19968;-84
2023/01/08 06:40:23;;;;;;;;;;;8.70;99.90;;;;;;4266516;27;20374;-85
2023/01/08 06:42:23;;;;;;;;;;;9.40;99.90;;;;;;4267233;27;20034;-85
2023/01/08 06:44:25;;;;;;;;;;;8.50;99.90;;;;;;4262838;27;19964;-85
2023/01/08 06:46:27;;;;;;;;;;;9.00;99.90;;;;;;4248814;27;20454;-85
2023/01/08 06:48:27;;;;;;;;;;;9.70;99.90;;;;;;4267210;27;20450;-86
2023/01/08 06:50:28;;;;;;;;;;;9.10;99.90;;;;;;4249302;27;19963;-86
2023/01/08 06:52:29;;;;;;;;;;;8.70;99.90;;;;;;4267510;27;20432;-86
2023/01/08 06:54:30;;;;;;;;;;;8.30;99.90;;;;;;4248968;27;20398;-85
2023/01/08 06:56:32;;;;;;;;;;;8.80;99.90;;;;;;4267902;27;20401;-84
2023/01/08 06:58:33;;;;;;;;;;;8.40;99.90;;;;;;4267111;27;19930;-85
2023/01/08 07:00:33;;;;;;;;;;;9.00;99.90;;;;;;4267119;27;20386;-86
2023/01/08 07:02:34;;;;;;;;;;;9.00;99.90;;;;;;4266340;27;19971;-86
2023/01/08 07:04:34;;;;;;;;;;;8.90;99.90;;;;;;4267164;27;19919;-86
2023/01/08 07:06:36;;;;;;;;;;;8.80;99.90;;;;;;4266678;27;20298;-86
2023/01/08 07:08:37;;;;;;;;;;;8.50;99.90;;;;;;4267037;27;19915;-86
2023/01/08 07:10:37;;;;;;;;;;;9.20;99.90;;;;;;4267369;27;19926;-85
2023/01/08 07:12:39;;;;;;;;;;;9.20;99.90;;;;;;4248723;27;19925;-85
2023/01/08 07:14:39;;;;;;;;;;;8.40;99.90;;;;;;4267698;27;20298;-85
2023/01/08 07:16:40;;;;;;;;;;;9.90;99.90;;;;;;4267608;27;19919;-85
2023/01/08 07:18:41;;;;;;;;;;;9.30;99.90;;;;;;4248405;27;20011;-85
2023/01/08 07:20:43;;;;;;;;;;;8.50;99.90;;;;;;4267605;27;19968;-85
2023/01/08 07:22:43;;;;;;;;;;;8.80;99.90;;;;;;4248163;27;19919;-85
2023/01/08 07:24:44;;;;;;;;;;;8.60;99.90;;;;;;4248306;27;20390;-85
2023/01/08 07:26:45;;;;;;;;;;;8.80;99.90;;;;;;4247963;27;19927;-85
2023/01/08 07:28:46;;;;;;;;;;;8.90;99.90;;;;;;4248394;27;20409;-85
2023/01/08 07:30:47;;;;;;;;;;;8.90;99.90;;;;;;4266372;27;19923;-85
2023/01/08 07:32:48;;;;;;;;;;;8.90;99.90;;;;;;4248677;27;20475;-84
2023/01/08 07:34:48;;;;;;;;;;;8.80;99.90;;;;;;4266787;27;19919;-85
2023/01/08 07:36:50;;;;;;;;;;;8.90;99.90;;;;;;4248636;27;19923;-85
2023/01/08 07:38:50;;;;;;;;;;;8.70;99.90;;;;;;4247870;27;20340;-85
2023/01/08 07:40:51;;;;;;;;;;;7.70;99.90;;;;;;4248689;27;20018;-85
2023/01/08 07:43:02;;;;;;;;;;;8.40;99.90;;;;;;4267307;27;19923;-85
2023/01/08 07:45:03;;;;;;;;;;;8.00;99.90;;;;;;4266793;27;19919;-85
2023/01/08 07:47:03;;;;;;;;;;;7.30;99.90;;;;;;4232472;28;19920;-85
2023/01/08 07:49:05;;;;;;;;;;;8.60;99.90;;;;;;4266904;27;20397;-85
2023/01/08 07:51:07;;;;;;;;;;;9.30;99.90;;;;;;4261341;27;19920;-86
2023/01/08 07:53:08;;;;;;;;;;;8.90;99.90;;;;;;4223293;28;20029;-86
2023/01/08 07:55:10;;;;;;;;;;;9.20;99.90;;;;;;4268016;27;19923;-87
2023/01/08 07:57:10;;;;;;;;;;;8.30;99.90;;;;;;4267617;27;19923;-87
2023/01/08 07:59:11;;;;;;;;;;;8.50;99.90;;;;;;4232114;28;20464;-87
2023/01/08 08:01:12;;;;;;;;;;;8.50;99.90;;;;;;4265226;27;19918;-85
2023/01/08 08:03:13;;;;;;;;;;;5.60;99.90;;;;;;4266555;27;19921;-85
2023/01/08 08:05:16;;;;;;;;;;;8.50;99.90;;;;;;4230424;28;20300;-86
2023/01/08 08:07:17;;;;;;;;;;;8.10;99.90;;;;;;4265804;27;19970;-86
2023/01/08 08:09:17;;;;;;;;;;;8.50;99.90;;;;;;4266113;27;19919;-86
2023/01/08 08:11:18;;;;;;;;;;;8.10;99.90;;;;;;4266162;27;19919;-84
2023/01/08 08:13:19;;;;;;;;;;;8.80;99.90;;;;;;4230857;28;19930;-85
2023/01/08 08:15:20;;;;;;;;;;;8.10;99.90;;;;;;4266686;27;19925;-86
2023/01/08 08:17:21;;;;;;;;;;;7.60;99.90;;;;;;4248592;27;19927;-86
2023/01/08 08:19:22;;;;;;;;;;;7.90;99.90;;;;;;4247754;28;20021;-86
2023/01/08 08:21:22;;;;;;;;;;;8.40;99.90;;;;;;4266698;27;19950;-86
2023/01/08 08:23:23;;;;;;;;;;;8.50;99.90;;;;;;4267002;27;20428;-86
2023/01/08 08:25:24;;;;;;;;;;;8.50;99.90;;;;;;4266911;27;19993;-87
2023/01/08 08:27:26;;;;;;;;;;;9.30;99.90;;;;;;4266464;27;19919;-86
2023/01/08 08:29:27;;;;;;;;;;;8.40;99.90;;;;;;4247124;28;19919;-86
2023/01/08 08:31:29;;;;;;;;;;;8.20;99.90;;;;;;4265018;27;19923;-85
2023/01/08 08:33:29;;;;;;;;;;;8.50;99.90;;;;;;4265350;27;20489;-86
2023/01/08 08:35:31;;;;;;;;;;;8.50;99.90;;;;;;4262198;27;20041;-85
2023/01/08 08:37:32;;;;;;;;;;;8.20;99.90;;;;;;4245191;28;20439;-86
2023/01/08 08:39:33;;;;;;;;;;;5.90;99.90;;;;;;4265186;27;19919;-85
2023/01/08 08:41:34;;;;;;;;;;;8.20;99.90;;;;;;4265569;27;19988;-85
2023/01/08 08:43:35;;;;;;;;;;;8.60;99.90;;;;;;4230289;28;20392;-86
2023/01/08 08:45:36;;;;;;;;;;;8.90;99.90;;;;;;4248228;28;19926;-86
2023/01/08 08:47:37;;;;;;;;;;;8.80;99.90;;;;;;4260740;27;19972;-86
2023/01/08 08:49:38;;;;;;;;;;;8.90;99.90;;;;;;4267205;27;20280;-87
2023/01/08 08:51:39;;;;;;;;;;;8.90;99.90;;;;;;4267095;27;19930;-86
2023/01/08 08:53:41;;;;;;;;;;;9.00;99.90;;;;;;4231087;28;19979;-86
2023/01/08 08:55:41;;;;;;;;;;;9.50;99.90;;;;;;4229054;28;19924;-87
2023/01/08 08:57:43;;;;;;;;;;;9.00;99.90;;;;;;4262799;27;19974;-85
2023/01/08 08:59:45;;;;;;;;;;;9.10;99.90;;;;;;4246447;28;19920;-85
2023/01/08 09:01:45;;;;;;;;;;;8.90;99.90;;;;;;4220707;28;20383;-85
2023/01/08 09:03:46;;;;;;;;;;;9.20;99.90;;;;;;4237906;28;20006;-86
2023/01/08 09:05:48;;;;;;;;;;;10.30;99.90;;;;;;4265139;27;19919;-87
2023/01/08 09:07:49;;;;;;;;;;;;;;;;;;4249125;28;20030;-87
2023/01/08 09:09:50;;;;;;;;;;;9.60;99.90;;;;;;4267108;27;20279;-86
2023/01/08 09:11:51;;;;;;;;;;;9.70;99.90;;;;;;4267384;27;20013;-86
2023/01/08 09:13:53;;;;;;;;;;;10.60;99.90;;;;;;4250004;28;20327;-87
2023/01/08 09:15:55;;;;;;;;;;;;;;;;;;4257749;28;19919;-87
2023/01/08 09:18:02;;;;;;;;;;;;;;;;;;4262041;28;19926;-87
2023/01/08 09:20:04;;;;;;;;;;;;;;;;;;4259347;28;19919;-86
2023/01/08 09:22:11;;;;;;;;;;;;;;;;;;4244141;28;19919;-87
2023/01/08 09:24:12;;;;;;;;;;;10.30;99.90;;;;;;4245951;28;20443;-86
2023/01/08 09:26:21;;;;;;;;;;;12.30;99.90;;;;;;4249942;28;19951;-86
2023/01/08 09:28:22;;;;;;;;;;;13.00;99.90;;;;;;4269661;27;19958;-87
2023/01/08 09:30:25;;;;;;;;;;;13.00;99.90;;;;;;4269427;27;19919;-87
2023/01/08 09:32:26;;;;;;;;;;;13.40;99.90;;;;;;4235685;28;19920;-86
2023/01/08 09:34:29;;;;;;;;;;;12.70;99.90;;;;;;4244440;28;19954;-87
2023/01/08 09:36:31;;;;;;;;;;;13.30;99.90;;;;;;4259737;27;19920;-86
2023/01/08 09:38:33;;;;;;;;;;;13.00;99.90;;;;;;4256043;27;19924;-86
2023/01/08 09:40:55;;;;;;;;;;;13.10;99.90;;;;;;4257694;27;19920;-86
2023/01/08 09:42:57;;;;;;;;;;;13.50;99.90;;;;;;4239782;27;20038;-85
2023/01/08 09:45:00;;;;;;;;;;;13.80;99.90;;;;;;4252516;27;19919;-84
2023/01/08 09:47:02;;;;;;;;;;;14.00;99.90;;;;;;4270851;27;19918;-85
2023/01/08 09:49:04;;;;;;;;;;;13.50;99.90;;;;;;4269907;27;20405;-84
2023/01/08 09:51:11;;;;;;;;;;;13.70;99.90;;;;;;4268854;27;19923;-85
2023/01/08 09:53:14;;;;;;;;;;;13.10;99.90;;;;;;4269839;27;19925;-86
2023/01/08 09:55:15;;;;;;;;;;;13.90;99.90;;;;;;4269223;27;20013;-84
2023/01/08 09:57:17;;;;;;;;;;;14.60;99.90;;;;;;4266487;27;19919;-83
2023/01/08 09:59:18;;;;;;;;;;;12.50;99.90;;;;;;4267861;27;19940;-84
2023/01/08 10:01:27;;;;;;;;;;;13.30;99.90;;;;;;4247313;27;19981;-82
2023/01/08 10:03:30;;;;;;;;;;;13.20;99.90;;;;;;4261142;27;20002;-85
2023/01/08 10:05:30;;;;;;;;;;;12.70;99.90;;;;;;4250758;27;20390;-84
2023/01/08 10:07:31;;;;;;;;;;;13.00;99.90;;;;;;4251154;27;19920;-84
2023/01/08 10:09:32;;;;;;;;;;;12.40;99.90;;;;;;4255807;27;19919;-83
2023/01/08 10:11:43;;;;;;;;;;;12.10;99.90;;;;;;4252678;27;20002;-84
2023/01/08 10:13:49;;;;;;;;;;;12.10;99.90;;;;;;4267762;27;19922;-83
2023/01/08 10:15:50;;;;;;;;;;;12.40;99.90;;;;;;4257346;27;19920;-85
2023/01/08 10:17:55;;;;;;;;;;;12.00;99.90;;;;;;4250010;27;19919;-84
2023/01/08 10:19:56;;;;;;;;;;;12.00;99.90;;;;;;4249213;27;19919;-84
2023/01/08 10:21:57;;;;;;;;;;;11.90;99.90;;;;;;4249431;27;19926;-85
2023/01/08 10:23:58;;;;;;;;;;;11.70;99.90;;;;;;4249300;27;19920;-84
2023/01/08 10:25:59;;;;;;;;;;;11.60;99.90;;;;;;4249180;27;20313;-84
2023/01/08 10:28:01;;;;;;;;;;;11.70;99.90;;;;;;4249382;27;19924;-84
2023/01/08 10:30:05;;;;;;;;;;;11.50;99.90;;;;;;4249286;27;19926;-84
2023/01/08 10:32:08;;;;;;;;;;;11.50;99.90;;;;;;4249858;27;20385;-84
2023/01/08 10:34:09;;;;;;;;;;;11.60;99.90;;;;;;4264367;27;20009;-85
2023/01/08 10:36:15;;;;;;;;;;;11.50;99.90;;;;;;4258602;27;19974;-85
2023/01/08 10:38:42;;;;;;;;;;;11.50;99.90;;;;;;4257129;27;19973;-83
2023/01/08 10:40:47;;;;;;;;;;;11.30;99.90;;;;;;4233930;27;19918;-83
2023/01/08 10:42:48;;;;;;;;;;;11.30;99.90;;;;;;4266478;27;19919;-84
2023/01/08 10:44:57;;;;;;;;;;;11.40;99.90;;;;;;4231373;28;20465;-83
2023/01/08 10:46:59;;;;;;;;;;;11.40;99.90;;;;;;4266752;27;19919;-84
2023/01/08 10:49:00;;;;;;;;;;;11.40;99.90;;;;;;4266200;27;19919;-84
2023/01/08 10:51:13;;;;;;;;;;;11.40;99.90;;;;;;4266833;27;19975;-84
2023/01/08 10:53:24;;;;;;;;;;;11.50;99.90;;;;;;4266693;27;19919;-84
2023/01/08 10:55:30;;;;;;;;;;;11.50;99.90;;;;;;4266600;27;20264;-84
2023/01/08 10:57:31;;;;;;;;;;;11.90;99.90;;;;;;4266687;27;19925;-84
2023/01/08 10:59:35;;;;;;;;;;;11.60;99.90;;;;;;4266718;27;20379;-83
2023/01/08 11:01:36;;;;;;;;;;;11.60;99.90;;;;;;4265777;27;19919;-84
2023/01/08 11:03:36;;;;;;;;;;;11.50;99.90;;;;;;4266654;27;20370;-84
2023/01/08 11:05:38;;;;;;;;;;;11.40;99.90;;;;;;4266829;27;19926;-84
2023/01/08 11:07:39;;;;;;;;;;;11.50;99.90;;;;;;4266750;27;19922;-84
2023/01/08 11:09:44;;;;;;;;;;;11.50;99.90;;;;;;4265601;27;19927;-84
2023/01/08 11:11:45;;;;;;;;;;;11.20;99.90;;;;;;4248556;27;19966;-83
2023/01/08 11:13:59;;;;;;;;;;;11.20;99.90;;;;;;4250066;27;19916;-84
2023/01/08 11:16:05;;;;;;;;;;;11.30;99.90;;;;;;4237977;27;20019;-86
2023/01/08 11:18:16;;;;;;;;;;;11.30;99.90;;;;;;4232998;28;19926;-86
2023/01/08 11:20:21;;;;;;;;;;;11.30;99.90;;;;;;4232031;28;19919;-85
2023/01/08 11:22:24;;;;;;;;;;;11.30;99.90;;;;;;4231473;28;20294;-86
2023/01/08 11:24:24;;;;;;;;;;;11.20;99.90;;;;;;4214445;28;20370;-86
2023/01/08 11:26:26;;;;;;;;;;;11.20;99.90;;;;;;4238044;27;19963;-86
2023/01/08 11:28:53;;;;;;;;;;;11.30;99.90;;;;;;4250752;27;19919;-86
2023/01/08 11:30:56;;;;;;;;;;;11.20;99.90;;;;;;4215251;27;19979;-86
2023/01/08 11:33:15;;;;;;;;;;;11.30;99.90;;;;;;4247731;27;19923;-85
2023/01/08 11:35:17;;;;;;;;;;;11.20;99.90;;;;;;4247342;27;20105;-85
2023/01/08 11:37:20;;;;;;;;;;;10.50;99.90;;;;;;4249932;27;19923;-85
2023/01/08 11:39:22;;;;;;;;;;;11.10;99.90;;;;;;4251378;27;19919;-85
2023/01/08 11:41:31;;;;;;;;;;;11.20;99.90;;;;;;4250061;27;19955;-86
2023/01/08 11:43:40;;;;;;;;;;;11.20;99.90;;;;;;4249128;27;19920;-86
2023/01/08 11:45:52;;;;;;;;;;;11.00;99.90;;;;;;4249372;27;20427;-85
2023/01/08 11:48:19;;;;;;;;;;;11.10;99.90;;;;;;4248472;27;20406;-85
2023/01/08 11:50:26;;;;;;;;;;;11.10;99.90;;;;;;4244307;27;19930;-86
2023/01/08 11:52:40;;;;;;;;;;;11.00;99.90;;;;;;4249311;27;20367;-86
2023/01/08 11:54:49;;;;;;;;;;;11.00;99.90;;;;;;4248594;27;19923;-86
2023/01/08 11:57:03;;;;;;;;;;;11.30;99.90;;;;;;4248619;27;20009;-87
2023/01/08 11:59:07;;;;;;;;;;;11.10;99.90;;;;;;4247590;27;19926;-86
2023/01/08 12:01:10;;;;;;;;;;;11.20;99.90;;;;;;4249446;27;20006;-86